Time;durP1;ratioP1;P1;durP2;ratioP2;P2;SDS_P1;SDS_P2;PMS_P1;PMS_P2;Temp;Humidity;BMP_temperature;BMP_pressure;BME280_temperature;BME280_humidity;BME280_pressure;Samples;Min_cycle;Max_cycle;Signal;HPM_P1;HPM_P2
2021/10/17 00:01:03;;;;;;;16.60;6.78;;;;;;;10.67;68.23;101987.78;4992764;28;20118;-53
2021/10/17 00:03:31;;;;;;;17.33;6.85;;;;;;;10.65;68.33;101996.22;4992079;28;20089;-50
2021/10/17 00:05:59;;;;;;;14.13;5.75;;;;;;;10.66;68.38;101994.31;4992032;28;20049;-51
2021/10/17 00:08:27;;;;;;;14.57;6.93;;;;;;;10.68;68.83;101989.44;4992853;28;20093;-51
2021/10/17 00:10:55;;;;;;;18.33;6.82;;;;;;;10.71;68.39;101985.41;4992863;28;20054;-51
2021/10/17 00:13:23;;;;;;;16.30;6.88;;;;;;;10.74;68.31;101990.38;4992253;28;20034;-51
2021/10/17 00:15:51;;;;;;;16.40;6.78;;;;;;;10.73;68.71;101988.75;4992315;28;20046;-51
2021/10/17 00:18:20;;;;;;;14.35;6.63;;;;;;;10.73;68.25;101986.84;4991667;28;20043;-51
2021/10/17 00:20:49;;;;;;;15.25;6.80;;;;;;;10.74;68.64;101995.84;5007884;28;20053;-48
2021/10/17 00:23:18;;;;;;;16.55;7.00;;;;;;;10.75;68.73;101986.56;4992408;28;20057;-51
2021/10/17 00:25:46;;;;;;;18.70;7.65;;;;;;;10.75;68.93;101990.16;4992141;28;20041;-51
2021/10/17 00:28:17;;;;;;;15.55;6.95;;;;;;;10.73;68.75;102002.38;4989807;28;20162;-51
2021/10/17 00:30:51;;;;;;;16.55;6.38;;;;;;;10.70;69.04;101994.66;4990996;28;20056;-51
2021/10/17 00:33:22;;;;;;;13.90;6.43;;;;;;;10.67;69.24;101998.69;5006878;28;20074;-51
2021/10/17 00:35:52;;;;;;;14.32;6.25;;;;;;;10.63;68.58;101992.03;4991265;28;20045;-50
2021/10/17 00:38:20;;;;;;;18.75;6.80;;;;;;;10.60;68.92;101987.91;4985372;28;20055;-51
2021/10/17 00:40:51;;;;;;;14.57;6.60;;;;;;;10.59;69.10;101988.97;4978521;28;20038;-50
2021/10/17 00:43:20;;;;;;;12.45;6.47;;;;;;;10.56;69.11;101984.03;4992022;28;20042;-51
2021/10/17 00:45:48;;;;;;;18.90;6.90;;;;;;;10.55;68.92;101987.78;4991754;28;20046;-50
2021/10/17 00:48:17;;;;;;;15.95;7.00;;;;;;;10.53;69.43;101987.19;4991213;28;20501;-51
2021/10/17 00:50:46;;;;;;;19.38;7.13;;;;;;;10.50;69.66;101982.25;5007353;28;20058;-50
2021/10/17 00:53:19;;;;;;;16.85;6.65;;;;;;;10.49;69.57;101982.50;4992152;28;20046;-50
2021/10/17 00:55:48;;;;;;;12.80;6.07;;;;;;;10.49;69.94;101977.88;4991126;28;20125;-48
2021/10/17 00:58:21;;;;;;;14.98;6.32;;;;;;;10.48;69.86;101973.47;4991560;28;20046;-51
2021/10/17 01:00:50;;;;;;;14.43;5.90;;;;;;;10.50;69.99;101976.78;4990730;28;20039;-50
2021/10/17 01:03:19;;;;;;;19.00;6.85;;;;;;;10.53;69.83;101981.75;4991651;28;20042;-51
2021/10/17 01:05:48;;;;;;;17.20;6.60;;;;;;;10.55;69.68;101976.06;4991859;28;20053;-50
2021/10/17 01:08:17;;;;;;;16.33;6.28;;;;;;;10.54;69.63;101969.81;4988881;28;20038;-50
2021/10/17 01:10:46;;;;;;;18.73;6.93;;;;;;;10.51;70.12;101981.19;4991933;28;20097;-53
2021/10/17 01:13:17;;;;;;;15.20;6.10;;;;;;;10.53;70.21;101978.19;4974341;28;20062;-51
2021/10/17 01:15:51;;;;;;;15.20;6.05;;;;;;;10.56;70.00;101967.66;4991698;28;20046;-49
2021/10/17 01:18:22;;;;;;;14.75;6.15;;;;;;;10.61;69.99;101965.03;4988740;28;20052;-52
2021/10/17 01:20:52;;;;;;;17.10;6.13;;;;;;;10.72;70.22;101960.63;5007003;28;20054;-51
2021/10/17 01:23:21;;;;;;;13.65;5.35;;;;;;;10.78;69.19;101948.78;4990749;28;20134;-51
2021/10/17 01:25:50;;;;;;;14.48;5.57;;;;;;;10.79;68.76;101955.03;5006883;28;20039;-51
2021/10/17 01:28:18;;;;;;;21.63;6.53;;;;;;;10.74;69.13;101957.66;4990696;28;20061;-52
2021/10/17 01:30:47;;;;;;;15.68;6.45;;;;;;;10.66;68.99;101959.69;4991086;28;20062;-51
2021/10/17 01:33:16;;;;;;;16.75;6.18;;;;;;;10.57;69.53;101952.97;4987928;28;20220;-52
2021/10/17 01:35:44;;;;;;;12.55;5.68;;;;;;;10.51;69.87;101959.38;4974160;28;20101;-51
2021/10/17 01:38:13;;;;;;;17.38;6.00;;;;;;;10.50;70.17;101960.44;5000126;28;20051;-51
2021/10/17 01:40:41;;;;;;;16.35;6.22;;;;;;;10.49;70.38;101950.63;4990637;28;20089;-50
2021/10/17 01:43:09;;;;;;;16.42;5.95;;;;;;;10.48;70.12;101951.66;4990152;28;20118;-50
2021/10/17 01:45:58;;;;;;;14.50;5.88;;;;;;;10.45;70.33;101960.34;4991268;28;20041;-52
2021/10/17 01:48:28;;;;;;;14.75;6.10;;;;;;;10.39;70.73;101959.41;5006860;28;20039;-51
2021/10/17 01:50:58;;;;;;;15.68;5.93;;;;;;;10.39;70.56;101950.38;5001953;28;20215;-51
2021/10/17 01:53:28;;;;;;;17.42;6.22;;;;;;;10.39;70.96;101950.38;4993763;28;20069;-51
2021/10/17 01:55:58;;;;;;;14.23;6.18;;;;;;;10.43;71.19;101946.13;4993576;28;20054;-50
2021/10/17 01:58:30;;;;;;;17.70;5.43;;;;;;;10.43;70.54;101941.50;4993570;28;20050;-51
2021/10/17 02:00:59;;;;;;;13.93;5.65;;;;;;;10.42;70.94;101941.75;4993259;28;20042;-50
2021/10/17 02:03:29;;;;;;;21.05;7.10;;;;;;;10.39;70.76;101934.88;4999312;28;20043;-51
2021/10/17 02:05:58;;;;;;;15.02;5.95;;;;;;;10.35;71.01;101932.88;4992221;28;20046;-51
2021/10/17 02:08:27;;;;;;;19.23;6.13;;;;;;;10.34;70.81;101933.91;4993865;28;20062;-48
2021/10/17 02:10:57;;;;;;;15.65;6.22;;;;;;;10.35;71.06;101928.25;4993632;28;20093;-50
2021/10/17 02:13:27;;;;;;;18.20;5.80;;;;;;;10.43;70.86;101930.59;4989907;28;20170;-50
2021/10/17 02:15:55;;;;;;;13.10;5.72;;;;;;;10.57;70.47;101928.44;4987257;28;20086;-51
2021/10/17 02:18:24;;;;;;;18.98;5.60;;;;;;;10.64;70.35;101928.31;4993850;28;20136;-52
2021/10/17 02:20:53;;;;;;;14.98;5.38;;;;;;;10.68;69.51;101925.91;4993750;28;20108;-51
2021/10/17 02:23:22;;;;;;;12.35;5.50;;;;;;;10.70;70.01;101924.59;4993091;28;20112;-52
2021/10/17 02:25:54;;;;;;;13.70;5.40;;;;;;;10.68;69.65;101925.91;4993533;28;20046;-51
2021/10/17 02:28:34;;;;;;;13.57;5.18;;;;;;;10.57;69.06;101914.81;4993106;28;20046;-50
2021/10/17 02:31:03;;;;;;;14.63;5.45;;;;;;;10.51;69.74;101921.25;4993328;28;20062;-51
2021/10/17 02:33:33;;;;;;;14.80;5.80;;;;;;;10.51;69.77;101910.34;4990112;28;20393;-49
2021/10/17 02:36:03;;;;;;;12.48;5.13;;;;;;;10.49;69.84;101901.56;4993446;28;20441;-51
2021/10/17 02:38:33;;;;;;;11.18;4.65;;;;;;;10.50;70.00;101900.50;4994364;28;20046;-51
2021/10/17 02:41:01;;;;;;;18.15;5.78;;;;;;;10.48;69.85;101905.34;4991187;28;20043;-51
2021/10/17 02:43:30;;;;;;;14.20;5.85;;;;;;;10.44;70.42;101909.66;4999398;28;20073;-50
2021/10/17 02:45:59;;;;;;;13.63;5.47;;;;;;;10.39;70.20;101904.06;4994358;28;20437;-52
2021/10/17 02:48:28;;;;;;;14.95;5.88;;;;;;;10.32;70.77;101897.91;5009233;28;20073;-51
2021/10/17 02:51:00;;;;;;;15.15;5.88;;;;;;;10.32;71.16;101900.63;4993097;28;20398;-50
2021/10/17 02:53:28;;;;;;;15.43;5.78;;;;;;;10.32;70.96;101906.94;4991233;28;20394;-49
2021/10/17 02:55:56;;;;;;;14.95;5.63;;;;;;;10.32;70.91;101906.09;4993349;28;20497;-51
2021/10/17 02:58:25;;;;;;;20.00;6.10;;;;;;;10.26;70.70;101916.03;4989565;28;20047;-49
2021/10/17 03:00:58;;;;;;;17.08;5.90;;;;;;;10.21;71.05;101915.91;4992564;28;20512;-52
2021/10/17 03:03:27;;;;;;;16.88;6.00;;;;;;;10.18;71.27;101921.84;4992900;28;20535;-51
2021/10/17 03:05:55;;;;;;;14.27;5.60;;;;;;;10.17;71.48;101920.16;4989040;28;20430;-51
2021/10/17 03:08:25;;;;;;;15.88;5.97;;;;;;;10.17;72.04;101912.84;4983153;28;20497;-50
2021/10/17 03:10:57;;;;;;;14.25;6.28;;;;;;;10.17;71.68;101915.56;4992157;28;20509;-50
2021/10/17 03:13:25;;;;;;;15.00;6.38;;;;;;;10.20;71.82;101912.38;4993720;28;20409;-52
2021/10/17 03:15:57;;;;;;;13.68;5.43;;;;;;;10.28;71.65;101907.63;4990518;28;20433;-51
2021/10/17 03:18:26;;;;;;;13.02;5.50;;;;;;;10.39;71.32;101898.59;4992294;28;20406;-50
2021/10/17 03:20:55;;;;;;;15.80;5.55;;;;;;;10.43;70.96;101897.88;4976205;28;20429;-51
2021/10/17 03:23:24;;;;;;;13.98;5.88;;;;;;;10.43;71.02;101907.97;5000788;28;20422;-52
2021/10/17 03:25:52;;;;;;;13.55;6.00;;;;;;;10.39;70.79;101906.78;4993160;28;20425;-50
2021/10/17 03:28:20;;;;;;;14.68;5.97;;;;;;;10.32;70.86;101904.22;4988323;28;20065;-51
2021/10/17 03:30:51;;;;;;;14.27;5.75;;;;;;;10.28;71.12;101924.81;5001436;28;20382;-50
2021/10/17 03:33:20;;;;;;;15.52;6.15;;;;;;;10.17;71.29;101937.38;4991408;28;20528;-51
2021/10/17 03:35:55;;;;;;;10.18;5.28;;;;;;;10.11;71.90;101921.13;4992246;28;20485;-51
2021/10/17 03:38:23;;;;;;;14.00;5.85;;;;;;;10.13;72.15;101927.19;4992886;28;20050;-51
2021/10/17 03:40:51;;;;;;;11.07;5.57;;;;;;;10.13;71.91;101928.00;5007751;28;20386;-51
2021/10/17 03:43:20;;;;;;;14.80;5.43;;;;;;;10.10;72.15;101920.31;4988172;28;20045;-51
2021/10/17 03:45:54;;;;;;;19.33;5.97;;;;;;;10.13;72.40;101925.28;4998837;28;20576;-50
2021/10/17 03:48:28;;;;;;;15.27;5.65;;;;;;;10.16;72.35;101919.34;5006210;28;20055;-51
2021/10/17 03:50:58;;;;;;;13.13;6.07;;;;;;;10.15;72.44;101914.97;4991882;28;20517;-48
2021/10/17 03:53:26;;;;;;;15.02;5.90;;;;;;;10.13;72.63;101910.84;4991645;28;20536;-50
2021/10/17 03:55:55;;;;;;;15.48;5.68;;;;;;;10.11;72.53;101911.06;4992048;28;20494;-51
2021/10/17 03:58:23;;;;;;;17.05;6.05;;;;;;;10.15;72.93;101912.25;4991545;28;20413;-51
2021/10/17 04:00:51;;;;;;;16.92;5.75;;;;;;;10.19;72.90;101909.88;4991658;28;20050;-51
2021/10/17 04:03:20;;;;;;;14.68;5.93;;;;;;;10.21;72.15;101905.84;4991542;28;20532;-50
2021/10/17 04:05:54;;;;;;;13.25;5.38;;;;;;;10.20;72.19;101906.91;4991601;28;20092;-51
2021/10/17 04:08:22;;;;;;;14.95;5.65;;;;;;;10.21;72.06;101910.47;4991396;28;20411;-50
2021/10/17 04:10:50;;;;;;;20.33;6.20;;;;;;;10.19;71.91;101910.69;4989681;28;20489;-51
2021/10/17 04:13:20;;;;;;;16.35;5.75;;;;;;;10.14;71.95;101913.31;4988050;28;20564;-52
2021/10/17 04:15:48;;;;;;;13.95;5.63;;;;;;;10.07;72.16;101909.88;4971967;28;20043;-48
2021/10/17 04:18:16;;;;;;;14.52;5.95;;;;;;;10.01;72.40;101905.41;4991752;28;20056;-52
2021/10/17 04:20:45;;;;;;;15.07;5.82;;;;;;;9.98;72.83;101906.72;4991409;28;20050;-51
2021/10/17 04:23:13;;;;;;;15.05;5.82;;;;;;;9.97;72.54;101904.22;4986696;28;20053;-51
2021/10/17 04:25:41;;;;;;;14.20;5.85;;;;;;;9.94;72.53;101899.25;4983255;28;20500;-49
2021/10/17 04:28:13;;;;;;;17.15;6.53;;;;;;;9.88;71.96;101905.63;4990827;28;20061;-51
2021/10/17 04:30:42;;;;;;;20.98;6.28;;;;;;;9.82;72.44;101896.53;4989411;28;20050;-51
2021/10/17 04:33:10;;;;;;;12.20;5.57;;;;;;;9.75;72.08;101902.06;5005183;28;20057;-50
2021/10/17 04:35:41;;;;;;;16.27;5.95;;;;;;;9.69;72.21;101913.06;4991341;28;20109;-51
2021/10/17 04:38:09;;;;;;;21.90;6.50;;;;;;;9.56;72.14;101914.13;4990862;28;20072;-48
2021/10/17 04:40:37;;;;;;;13.48;5.60;;;;;;;9.48;73.01;101920.75;4990705;28;20516;-48
2021/10/17 04:43:05;;;;;;;14.57;6.00;;;;;;;9.44;72.88;101922.25;4989849;28;20042;-49
2021/10/17 04:45:34;;;;;;;14.23;5.70;;;;;;;9.41;73.02;101920.00;4991276;28;20038;-47
2021/10/17 04:48:02;;;;;;;14.77;5.80;;;;;;;9.36;73.02;101920.72;4974864;28;20049;-47
2021/10/17 04:50:30;;;;;;;15.52;6.03;;;;;;;9.37;73.44;101914.19;4992025;28;20047;-51
2021/10/17 04:52:58;;;;;;;12.77;5.65;;;;;;;9.41;72.93;101911.03;4989011;28;20047;-48
2021/10/17 04:55:26;;;;;;;15.55;5.72;;;;;;;9.39;72.97;101908.53;5006235;28;20046;-47
2021/10/17 04:57:54;;;;;;;14.68;5.70;;;;;;;9.30;72.89;101916.19;4988003;28;20074;-47
2021/10/17 05:00:24;;;;;;;18.85;6.30;;;;;;;9.21;74.16;101912.13;5003813;28;20035;-48
2021/10/17 05:02:59;;;;;;;18.57;6.70;;;;;;;9.21;74.25;101909.41;4989340;28;20035;-51
2021/10/17 05:05:27;;;;;;;14.52;6.72;;;;;;;9.21;74.32;101916.75;4987681;28;20127;-51
2021/10/17 05:07:58;;;;;;;17.95;7.13;;;;;;;9.20;74.83;101915.94;4987559;28;20070;-50
2021/10/17 05:10:26;;;;;;;17.20;6.13;;;;;;;9.22;74.68;101905.66;4983247;28;20050;-51
2021/10/17 05:12:54;;;;;;;12.75;5.95;;;;;;;9.27;74.51;101913.94;4982411;28;20071;-51
2021/10/17 05:15:22;;;;;;;14.93;6.45;;;;;;;9.30;74.16;101915.38;4991993;28;20038;-50
2021/10/17 05:17:51;;;;;;;17.33;6.90;;;;;;;9.32;74.12;101924.13;4990702;28;20046;-51
2021/10/17 05:20:19;;;;;;;15.43;6.65;;;;;;;9.31;73.97;101917.03;5007286;28;20413;-51
2021/10/17 05:22:46;;;;;;;15.52;6.32;;;;;;;9.25;73.84;101916.06;4990843;28;20039;-50
2021/10/17 05:25:14;;;;;;;15.23;6.63;;;;;;;9.21;74.25;101922.19;4987905;28;20413;-51
2021/10/17 05:27:43;;;;;;;15.75;6.38;;;;;;;9.15;74.32;101923.97;4993888;28;20100;-52
2021/10/17 05:30:11;;;;;;;14.13;6.10;;;;;;;9.13;74.70;101926.91;4994339;28;20057;-52
2021/10/17 05:32:39;;;;;;;13.07;6.20;;;;;;;9.13;74.72;101928.78;4995090;28;20038;-51
2021/10/17 05:35:08;;;;;;;16.98;6.70;;;;;;;9.14;74.93;101930.47;4994031;28;20042;-49
2021/10/17 05:37:37;;;;;;;13.90;6.45;;;;;;;9.15;74.39;101932.13;4994037;28;20042;-48
2021/10/17 05:40:06;;;;;;;15.20;7.05;;;;;;;9.09;74.49;101927.59;4995242;28;20054;-52
2021/10/17 05:42:37;;;;;;;17.35;6.90;;;;;;;9.13;74.63;101928.78;4990944;28;20446;-51
2021/10/17 05:45:05;;;;;;;17.58;7.00;;;;;;;9.19;74.62;101922.44;4988730;28;20418;-53
2021/10/17 05:47:33;;;;;;;15.95;6.95;;;;;;;9.24;74.37;101927.19;4992817;28;20493;-51
2021/10/17 05:50:02;;;;;;;16.13;6.45;;;;;;;9.25;73.61;101935.09;4991288;28;20044;-51
2021/10/17 05:52:31;;;;;;;15.95;6.95;;;;;;;9.27;73.44;101946.56;4985623;28;20053;-49
2021/10/17 05:54:59;;;;;;;15.90;7.00;;;;;;;9.27;73.97;101941.13;4993765;28;20050;-51
2021/10/17 05:57:27;;;;;;;20.08;6.65;;;;;;;9.28;73.56;101940.06;4998708;28;20035;-51
2021/10/17 05:59:55;;;;;;;19.13;7.20;;;;;;;9.31;73.36;101942.34;4994227;28;20054;-51
2021/10/17 06:02:23;;;;;;;16.73;7.05;;;;;;;9.27;73.57;101938.41;4990258;28;20089;-49
2021/10/17 06:04:52;;;;;;;15.60;6.93;;;;;;;9.21;74.00;101943.94;5010034;28;20074;-51
2021/10/17 06:07:23;;;;;;;16.63;7.32;;;;;;;9.15;74.32;101946.53;4993708;28;20082;-52
2021/10/17 06:09:51;;;;;;;16.02;6.75;;;;;;;9.15;73.86;101956.59;4993966;28;20038;-50
2021/10/17 06:12:25;;;;;;;15.38;7.03;;;;;;;9.16;74.43;101960.94;5004693;28;20042;-51
2021/10/17 06:14:53;;;;;;;13.07;6.65;;;;;;;9.20;74.43;101954.00;4987353;28;20066;-48
2021/10/17 06:17:21;;;;;;;17.98;6.72;;;;;;;9.24;74.13;101949.78;4998923;28;20496;-51
2021/10/17 06:19:50;;;;;;;16.92;6.95;;;;;;;9.25;73.23;101951.41;4975998;28;20046;-51
2021/10/17 06:22:17;;;;;;;16.67;7.05;;;;;;;9.21;74.08;101954.81;4990978;28;20451;-52
2021/10/17 06:24:47;;;;;;;19.75;7.75;;;;;;;9.20;73.88;101954.00;5005677;28;20260;-51
2021/10/17 06:27:15;;;;;;;20.52;6.93;;;;;;;9.21;73.55;101961.09;4994006;28;20046;-50
2021/10/17 06:29:46;;;;;;;15.50;7.47;;;;;;;9.26;73.67;101966.69;5000954;28;20411;-51
2021/10/17 06:32:13;;;;;;;15.00;7.20;;;;;;;9.29;74.04;101977.09;4998078;28;20408;-50
2021/10/17 06:34:45;;;;;;;16.00;6.78;;;;;;;9.27;73.55;101976.50;4992122;28;20054;-50
2021/10/17 06:37:14;;;;;;;15.10;7.00;;;;;;;9.27;73.54;101981.09;4995098;28;20046;-50
2021/10/17 06:39:41;;;;;;;17.13;6.82;;;;;;;9.29;74.22;101987.16;4991946;28;20050;-50
2021/10/17 06:42:14;;;;;;;20.45;7.22;;;;;;;9.28;73.97;101994.47;4991780;28;20042;-51
2021/10/17 06:44:56;;;;;;;17.10;7.50;;;;;;;9.30;73.72;101988.78;4989049;28;20046;-50
2021/10/17 06:47:24;;;;;;;20.48;7.22;;;;;;;9.31;74.14;101993.19;4990572;28;20073;-49
2021/10/17 06:49:53;;;;;;;18.02;7.47;;;;;;;9.36;73.83;101985.16;4990096;28;20030;-51
2021/10/17 06:52:21;;;;;;;16.05;6.60;;;;;;;9.37;74.23;101982.19;4989050;28;20512;-52
2021/10/17 06:54:49;;;;;;;17.73;7.60;;;;;;;9.41;73.96;101979.03;4992093;28;20054;-50
2021/10/17 06:57:16;;;;;;;15.15;7.28;;;;;;;9.41;74.30;101977.13;4992376;28;20039;-50
2021/10/17 06:59:45;;;;;;;17.10;7.00;;;;;;;9.42;73.81;101983.41;4988258;28;20942;-50
2021/10/17 07:02:13;;;;;;;16.65;7.53;;;;;;;9.42;73.85;101975.25;4987426;28;20056;-50
2021/10/17 07:04:41;;;;;;;19.58;7.80;;;;;;;9.42;74.16;101973.34;4990512;28;20042;-52
2021/10/17 07:07:09;;;;;;;16.95;7.57;;;;;;;9.43;73.61;101971.44;4990598;28;20058;-50
2021/10/17 07:09:37;;;;;;;20.70;8.05;;;;;;;9.43;74.48;101968.72;4978857;28;20481;-50
2021/10/17 07:12:09;;;;;;;23.15;8.35;;;;;;;9.43;73.87;101958.69;4987354;28;20046;-50
2021/10/17 07:14:37;;;;;;;17.13;7.20;;;;;;;9.39;73.90;101962.94;4988927;28;20043;-52
2021/10/17 07:17:24;;;;;;;13.40;7.13;;;;;;;9.30;74.18;101956.97;4982073;28;20056;-51
2021/10/17 07:19:52;;;;;;;16.98;7.35;;;;;;;9.28;74.33;101964.53;4987895;28;20046;-50
2021/10/17 07:22:20;;;;;;;17.42;7.78;;;;;;;9.29;74.42;101971.66;4988724;28;20082;-50
2021/10/17 07:24:50;;;;;;;18.25;7.88;;;;;;;9.29;74.79;101971.66;4990014;28;20070;-51
2021/10/17 07:27:18;;;;;;;18.08;7.43;;;;;;;9.31;75.17;101969.53;4979393;28;20042;-47
2021/10/17 07:29:47;;;;;;;21.10;8.13;;;;;;;9.35;75.26;101965.28;4990779;28;20066;-52
2021/10/17 07:32:15;;;;;;;19.00;7.40;;;;;;;9.42;75.13;101967.09;4991874;28;20042;-53
2021/10/17 07:34:43;;;;;;;17.67;8.32;;;;;;;9.46;75.02;101979.16;4990044;28;20097;-51
2021/10/17 07:37:15;;;;;;;22.65;7.93;;;;;;;9.46;75.02;101990.06;4991259;28;20137;-52
2021/10/17 07:39:43;;;;;;;22.88;8.52;;;;;;;9.47;75.28;102003.41;5007253;28;20457;-51
2021/10/17 07:42:11;;;;;;;16.67;7.97;;;;;;;9.44;74.99;102019.38;4991557;28;20414;-51
2021/10/17 07:44:40;;;;;;;15.98;7.57;;;;;;;9.45;75.32;102004.69;4991580;28;20501;-49
2021/10/17 07:47:13;;;;;;;15.98;7.38;;;;;;;9.51;74.91;102010.03;4997508;28;20053;-50
2021/10/17 07:49:56;;;;;;;17.63;7.00;;;;;;;9.56;75.27;101996.56;4989906;28;20478;-50
2021/10/17 07:52:29;;;;;;;15.90;7.40;;;;;;;9.62;75.12;102003.00;4991342;28;20129;-50
2021/10/17 07:54:57;;;;;;;20.10;7.82;;;;;;;9.65;74.95;102007.97;4990604;28;20065;-51
2021/10/17 07:57:44;;;;;;;;;;;;;;;9.71;75.14;102009.75;4991787;28;20498;-52
2021/10/17 08:00:20;;;;;;;14.73;6.80;;;;;;;9.76;74.67;102012.59;5004421;28;19930;-50
2021/10/17 08:03:11;;;;;;;18.73;7.68;;;;;;;9.80;74.65;102008.34;4961213;28;20565;-49
2021/10/17 08:05:42;;;;;;;15.18;6.68;;;;;;;9.82;74.76;102011.66;4944680;28;20510;-50
2021/10/17 08:08:15;;;;;;;17.95;7.40;;;;;;;9.85;74.42;102015.81;4935732;29;20580;-52
2021/10/17 08:10:43;;;;;;;17.48;7.53;;;;;;;9.87;74.48;102010.16;4948855;28;20051;-51
2021/10/17 08:13:13;;;;;;;13.82;6.53;;;;;;;9.90;74.44;102012.41;4946059;29;20051;-47
2021/10/17 08:15:45;;;;;;;18.75;7.72;;;;;;;9.95;74.50;102009.78;4935066;29;20626;-51
2021/10/17 08:18:15;;;;;;;20.13;7.13;;;;;;;9.98;74.41;102010.16;4940639;28;20047;-48
2021/10/17 08:20:54;;;;;;;15.48;6.53;;;;;;;9.98;74.45;101998.44;4955237;28;20062;-50
2021/10/17 08:23:23;;;;;;;18.85;7.47;;;;;;;10.02;74.50;102010.50;4951165;28;20091;-50
2021/10/17 08:25:52;;;;;;;17.45;6.70;;;;;;;10.04;74.23;102008.38;4947550;28;20537;-51
2021/10/17 08:28:20;;;;;;;14.57;7.00;;;;;;;10.04;74.28;102002.94;4934834;29;20122;-50
2021/10/17 08:30:50;;;;;;;14.15;6.55;;;;;;;10.05;74.11;102004.59;4950025;29;20569;-48
2021/10/17 08:33:19;;;;;;;19.50;6.97;;;;;;;10.07;73.82;101997.00;4925646;29;20118;-50
2021/10/17 08:35:48;;;;;;;15.48;6.35;;;;;;;10.10;73.73;102001.16;4956546;28;20513;-52
2021/10/17 08:38:16;;;;;;;17.02;6.05;;;;;;;10.13;73.84;102006.16;4959573;28;20050;-51
2021/10/17 08:40:52;;;;;;;16.58;6.32;;;;;;;10.15;73.64;102010.31;4990489;28;20515;-49
2021/10/17 08:43:26;;;;;;;18.30;6.15;;;;;;;10.15;73.62;102010.31;4983775;28;20122;-51
2021/10/17 08:46:05;;;;;;;18.10;6.40;;;;;;;10.18;73.15;102011.72;4990681;28;20093;-51
2021/10/17 08:48:43;;;;;;;17.00;6.13;;;;;;;10.19;73.35;102011.47;4991916;28;20050;-49
2021/10/17 08:51:11;;;;;;;14.63;6.40;;;;;;;10.21;73.38;102009.34;4980160;28;20043;-50
2021/10/17 08:53:50;;;;;;;15.27;6.47;;;;;;;10.26;73.07;102002.38;4977413;28;20043;-52
2021/10/17 08:56:23;;;;;;;14.40;6.38;;;;;;;10.28;73.41;102001.09;4990148;28;20038;-51
2021/10/17 08:58:52;;;;;;;16.13;6.03;;;;;;;10.30;73.12;101992.69;4991835;28;20435;-49
2021/10/17 09:01:38;;;;;;;16.83;7.22;;;;;;;10.33;72.69;102003.09;4991860;28;20068;-50
2021/10/17 09:04:09;;;;;;;15.35;6.40;;;;;;;10.36;73.33;101999.91;5008914;28;20129;-50
2021/10/17 09:06:55;;;;;;;15.20;5.53;;;;;;;10.38;72.69;102004.03;4994977;28;20054;-52
2021/10/17 09:09:24;;;;;;;13.68;5.43;;;;;;;10.40;72.40;102006.53;4994642;28;20132;-50
2021/10/17 09:11:57;;;;;;;17.05;6.20;;;;;;;10.44;72.67;101997.66;4993395;28;20054;-48
2021/10/17 09:14:30;;;;;;;13.23;5.55;;;;;;;10.47;72.80;101990.06;5010175;28;20053;-48
2021/10/17 09:16:58;;;;;;;16.42;7.03;;;;;;;10.49;72.29;101994.22;4995039;28;20085;-48
2021/10/17 09:19:30;;;;;;;15.98;6.53;;;;;;;10.47;71.89;101985.44;4995616;28;20038;-51
2021/10/17 09:21:58;;;;;;;14.77;6.35;;;;;;;10.48;71.12;101997.16;5010290;28;20042;-50
2021/10/17 09:24:27;;;;;;;14.30;6.10;;;;;;;10.49;71.14;101994.22;4995296;28;20121;-50
2021/10/17 09:27:06;;;;;;;16.52;6.60;;;;;;;10.51;71.44;101994.81;4995556;28;20042;-51
2021/10/17 09:29:34;;;;;;;14.80;5.72;;;;;;;10.54;70.94;102002.50;4994819;28;20105;-51
2021/10/17 09:32:11;;;;;;;16.98;6.25;;;;;;;10.58;70.83;101992.78;4995717;28;20129;-48
2021/10/17 09:34:39;;;;;;;;;;;;;;;10.63;72.27;101995.63;4994702;28;20050;-51
2021/10/17 09:37:08;;;;;;;15.00;5.75;;;;;;;10.65;71.89;101993.50;4989439;28;19953;-52
2021/10/17 09:40:17;;;;;;;15.40;6.07;;;;;;;10.62;70.29;102004.84;4993766;28;20518;-49
2021/10/17 09:43:26;;;;;;;13.63;6.25;;;;;;;10.61;70.71;102000.47;4982159;28;20133;-50
2021/10/17 09:46:27;;;;;;;18.50;7.20;;;;;;;10.60;70.31;102001.53;4991712;28;20070;-49
2021/10/17 09:48:55;;;;;;;14.23;6.50;;;;;;;10.59;70.49;102002.59;4994673;28;20125;-51
2021/10/17 09:51:26;;;;;;;11.70;5.25;;;;;;;10.61;69.79;102003.22;4988768;28;20034;-51
2021/10/17 09:53:57;;;;;;;11.30;5.05;;;;;;;10.65;70.65;101996.22;4994082;28;20043;-52
2021/10/17 09:56:32;;;;;;;13.93;5.63;;;;;;;10.70;70.77;101994.66;4988361;28;20057;-52
2021/10/17 09:59:11;;;;;;;13.35;5.68;;;;;;;10.75;71.99;101992.88;4981477;28;20049;-51
2021/10/17 10:01:40;;;;;;;17.25;6.03;;;;;;;10.76;70.82;101993.69;4995027;28;20034;-48
2021/10/17 10:04:12;;;;;;;11.73;5.80;;;;;;;10.77;70.64;102000.78;4994563;28;20409;-50
2021/10/17 10:06:40;;;;;;;13.05;5.55;;;;;;;10.83;71.22;101997.13;4994449;28;20042;-50
2021/10/17 10:09:09;;;;;;;20.83;6.00;;;;;;;10.92;71.86;102003.88;4994594;28;20038;-50
2021/10/17 10:11:38;;;;;;;14.10;6.00;;;;;;;10.91;70.63;102002.19;4994216;28;20045;-52
2021/10/17 10:14:07;;;;;;;10.80;5.68;;;;;;;10.91;70.24;102001.38;4992997;28;20053;-51
2021/10/17 10:16:36;;;;;;;14.02;5.45;;;;;;;10.94;72.01;102001.69;4994258;28;20039;-51
2021/10/17 10:19:05;;;;;;;14.52;5.72;;;;;;;10.93;71.02;102012.88;4994748;28;20117;-54
2021/10/17 10:21:35;;;;;;;12.73;5.65;;;;;;;10.95;71.14;102014.28;4994023;28;20430;-51
2021/10/17 10:24:08;;;;;;;12.70;5.20;;;;;;;10.93;70.98;102010.97;4986473;28;20489;-51
2021/10/17 10:26:36;;;;;;;14.32;5.55;;;;;;;10.93;71.02;102010.13;5008898;28;20045;-51
2021/10/17 10:29:11;;;;;;;12.65;5.78;;;;;;;10.94;71.46;102017.22;5008136;28;20493;-53
2021/10/17 10:32:25;;;;;;;13.63;6.07;;;;;;;10.94;72.08;102014.50;5008994;28;20125;-51
2021/10/17 10:34:56;;;;;;;13.20;5.65;;;;;;;10.96;71.67;102015.09;4972392;28;20051;-51
2021/10/17 10:37:26;;;;;;;11.45;4.78;;;;;;;10.95;71.56;102019.72;4973075;28;20059;-49
2021/10/17 10:40:05;;;;;;;12.80;5.65;;;;;;;10.95;71.29;102011.56;4972447;28;20046;-51
2021/10/17 10:42:44;;;;;;;13.60;5.47;;;;;;;10.96;70.55;102010.47;4971909;28;20051;-50
2021/10/17 10:45:34;;;;;;;14.60;5.60;;;;;;;11.01;73.58;102007.84;4972473;28;20049;-51
2021/10/17 10:48:14;;;;;;;15.60;6.32;;;;;;;11.02;72.47;102014.97;4972524;28;20045;-53
2021/10/17 10:50:44;;;;;;;14.85;6.70;;;;;;;11.02;72.03;102004.06;4971754;28;20061;-49
2021/10/17 10:53:47;;;;;;;14.45;6.30;;;;;;;11.00;71.17;102011.66;4971993;28;20093;-51
2021/10/17 10:56:44;;;;;;;19.20;6.75;;;;;;;10.99;71.20;102004.56;4971943;28;20050;-53
2021/10/17 10:59:13;;;;;;;18.63;6.82;;;;;;;11.02;70.99;102008.69;4972510;28;20050;-48
2021/10/17 11:02:10;;;;;;;13.02;6.45;;;;;;;11.05;71.57;102006.28;4742040;28;10000918;-55
2021/10/17 11:04:38;;;;;;;13.70;5.68;;;;;;;11.14;72.14;102006.75;4957439;28;20881;-52
2021/10/17 11:07:27;;;;;;;12.85;5.82;;;;;;;11.17;71.62;102000.81;4969016;28;20055;-55
2021/10/17 11:10:14;;;;;;;15.88;5.72;;;;;;;11.23;72.13;102002.56;4973289;28;20046;-52
2021/10/17 11:12:45;;;;;;;15.80;5.95;;;;;;;11.30;73.14;102005.13;4988178;28;20054;-51
2021/10/17 11:15:16;;;;;;;17.80;6.13;;;;;;;11.30;71.82;101997.81;4991201;28;20041;-54
2021/10/17 11:17:55;;;;;;;12.73;6.35;;;;;;;11.32;71.08;101997.53;4991148;28;20080;-55
2021/10/17 11:20:29;;;;;;;13.88;6.25;;;;;;;11.36;71.39;102006.06;4991572;28;20057;-53
2021/10/17 11:22:58;;;;;;;11.75;5.68;;;;;;;11.41;71.65;102001.53;4990509;28;20501;-52
2021/10/17 11:25:27;;;;;;;12.50;5.88;;;;;;;11.42;71.56;101992.25;4990312;28;20034;-53
2021/10/17 11:27:55;;;;;;;13.65;5.78;;;;;;;11.49;72.62;101987.47;5005590;28;20132;-51
2021/10/17 11:30:34;;;;;;;11.63;4.85;;;;;;;11.58;74.20;101978.91;4991349;28;20287;-51
2021/10/17 11:33:06;;;;;;;13.77;6.43;;;;;;;11.55;71.70;101979.41;4990784;28;20038;-51
2021/10/17 11:35:36;;;;;;;13.43;6.30;;;;;;;11.55;71.46;101985.69;4991092;28;20054;-52
2021/10/17 11:38:05;;;;;;;13.70;6.55;;;;;;;11.58;71.62;101984.38;4990113;28;20059;-51